sensor_id;sensor_type;location;lat;lon;timestamp;temperature;humidity
30288;DHT22;17103;48.316;11.558;2023-11-19T00:00:51;13.00;46.90
30288;DHT22;17103;48.316;11.558;2023-11-19T00:03:17;13.00;47.00
30288;DHT22;17103;48.316;11.558;2023-11-19T00:05:43;13.00;47.20
30288;DHT22;17103;48.316;11.558;2023-11-19T00:08:10;13.00;47.80
30288;DHT22;17103;48.316;11.558;2023-11-19T00:10:35;13.00;47.30
30288;DHT22;17103;48.316;11.558;2023-11-19T00:13:01;13.00;47.40
30288;DHT22;17103;48.316;11.558;2023-11-19T00:15:28;14.20;48.40
30288;DHT22;17103;48.316;11.558;2023-11-19T00:17:53;13.10;47.50
30288;DHT22;17103;48.316;11.558;2023-11-19T00:20:19;14.40;48.60
30288;DHT22;17103;48.316;11.558;2023-11-19T00:22:45;13.10;47.50
30288;DHT22;17103;48.316;11.558;2023-11-19T00:25:13;13.10;47.60
30288;DHT22;17103;48.316;11.558;2023-11-19T00:27:39;13.20;47.60
30288;DHT22;17103;48.316;11.558;2023-11-19T00:30:05;13.20;47.60
30288;DHT22;17103;48.316;11.558;2023-11-19T00:32:32;13.20;47.40
30288;DHT22;17103;48.316;11.558;2023-11-19T00:34:57;13.20;47.40
30288;DHT22;17103;48.316;11.558;2023-11-19T00:37:23;13.20;47.40
30288;DHT22;17103;48.316;11.558;2023-11-19T00:39:49;13.20;47.40
30288;DHT22;17103;48.316;11.558;2023-11-19T00:42:14;13.20;47.40
30288;DHT22;17103;48.316;11.558;2023-11-19T00:44:40;13.20;47.30
30288;DHT22;17103;48.316;11.558;2023-11-19T00:47:06;13.30;47.40
30288;DHT22;17103;48.316;11.558;2023-11-19T00:49:32;13.30;47.40
30288;DHT22;17103;48.316;11.558;2023-11-19T00:51:58;13.30;47.50
30288;DHT22;17103;48.316;11.558;2023-11-19T00:54:24;13.30;47.40
30288;DHT22;17103;48.316;11.558;2023-11-19T00:56:54;13.30;47.40
30288;DHT22;17103;48.316;11.558;2023-11-19T00:59:19;13.30;47.30
30288;DHT22;17103;48.316;11.558;2023-11-19T01:01:45;13.30;47.30
30288;DHT22;17103;48.316;11.558;2023-11-19T01:04:11;13.30;47.30
30288;DHT22;17103;48.316;11.558;2023-11-19T01:06:36;13.20;47.10
30288;DHT22;17103;48.316;11.558;2023-11-19T01:09:02;13.20;47.40
30288;DHT22;17103;48.316;11.558;2023-11-19T01:11:27;13.20;47.30
30288;DHT22;17103;48.316;11.558;2023-11-19T01:13:53;13.20;47.40
30288;DHT22;17103;48.316;11.558;2023-11-19T01:16:19;13.20;47.40
30288;DHT22;17103;48.316;11.558;2023-11-19T01:18:46;13.20;47.50
30288;DHT22;17103;48.316;11.558;2023-11-19T01:21:12;13.20;47.60
30288;DHT22;17103;48.316;11.558;2023-11-19T01:23:40;13.20;47.70
30288;DHT22;17103;48.316;11.558;2023-11-19T01:26:08;13.20;47.60
30288;DHT22;17103;48.316;11.558;2023-11-19T01:28:35;13.20;47.40
30288;DHT22;17103;48.316;11.558;2023-11-19T01:31:01;13.20;47.20
30288;DHT22;17103;48.316;11.558;2023-11-19T01:33:26;13.20;47.20
30288;DHT22;17103;48.316;11.558;2023-11-19T01:35:53;13.10;47.00
30288;DHT22;17103;48.316;11.558;2023-11-19T01:38:18;13.00;47.00
30288;DHT22;17103;48.316;11.558;2023-11-19T01:40:44;13.20;47.10
30288;DHT22;17103;48.316;11.558;2023-11-19T01:43:09;12.90;46.90
30288;DHT22;17103;48.316;11.558;2023-11-19T01:45:39;12.90;47.00
30288;DHT22;17103;48.316;11.558;2023-11-19T01:48:05;12.80;47.00
30288;DHT22;17103;48.316;11.558;2023-11-19T01:50:30;12.70;46.90
30288;DHT22;17103;48.316;11.558;2023-11-19T01:52:57;12.70;47.10
30288;DHT22;17103;48.316;11.558;2023-11-19T01:55:26;12.60;47.10
30288;DHT22;17103;48.316;11.558;2023-11-19T01:57:53;12.90;47.50
30288;DHT22;17103;48.316;11.558;2023-11-19T02:00:20;12.50;47.30
30288;DHT22;17103;48.316;11.558;2023-11-19T02:02:46;12.50;47.30
30288;DHT22;17103;48.316;11.558;2023-11-19T02:05:13;12.40;47.30
30288;DHT22;17103;48.316;11.558;2023-11-19T02:07:39;12.40;47.40
30288;DHT22;17103;48.316;11.558;2023-11-19T02:10:05;12.30;47.40
30288;DHT22;17103;48.316;11.558;2023-11-19T02:12:31;12.30;47.60
30288;DHT22;17103;48.316;11.558;2023-11-19T02:14:59;12.20;47.80
30288;DHT22;17103;48.316;11.558;2023-11-19T02:17:25;12.20;47.90
30288;DHT22;17103;48.316;11.558;2023-11-19T02:19:51;12.10;47.80
30288;DHT22;17103;48.316;11.558;2023-11-19T02:22:17;12.10;47.90
30288;DHT22;17103;48.316;11.558;2023-11-19T02:24:42;12.00;48.40
30288;DHT22;17103;48.316;11.558;2023-11-19T02:27:10;12.00;48.50
30288;DHT22;17103;48.316;11.558;2023-11-19T02:29:41;12.00;48.60
30288;DHT22;17103;48.316;11.558;2023-11-19T02:32:06;11.90;48.30
30288;DHT22;17103;48.316;11.558;2023-11-19T02:34:34;11.90;49.20
30288;DHT22;17103;48.316;11.558;2023-11-19T02:37:00;11.90;49.40
30288;DHT22;17103;48.316;11.558;2023-11-19T02:39:25;11.80;49.20
30288;DHT22;17103;48.316;11.558;2023-11-19T02:41:51;11.80;49.60
30288;DHT22;17103;48.316;11.558;2023-11-19T02:44:18;11.70;49.60
30288;DHT22;17103;48.316;11.558;2023-11-19T02:46:43;11.80;50.50
30288;DHT22;17103;48.316;11.558;2023-11-19T02:49:09;11.70;52.20
30288;DHT22;17103;48.316;11.558;2023-11-19T02:51:35;11.70;51.60
30288;DHT22;17103;48.316;11.558;2023-11-19T02:54:01;11.70;53.00
30288;DHT22;17103;48.316;11.558;2023-11-19T02:56:29;11.70;53.40
30288;DHT22;17103;48.316;11.558;2023-11-19T02:58:59;11.60;54.60
30288;DHT22;17103;48.316;11.558;2023-11-19T03:01:25;11.60;56.00
30288;DHT22;17103;48.316;11.558;2023-11-19T03:04:00;11.60;55.50
30288;DHT22;17103;48.316;11.558;2023-11-19T03:06:26;11.70;55.90
30288;DHT22;17103;48.316;11.558;2023-11-19T03:08:55;11.70;56.80
30288;DHT22;17103;48.316;11.558;2023-11-19T03:11:21;11.70;58.30
30288;DHT22;17103;48.316;11.558;2023-11-19T03:13:46;11.70;57.90
30288;DHT22;17103;48.316;11.558;2023-11-19T03:16:12;11.80;58.20
30288;DHT22;17103;48.316;11.558;2023-11-19T03:18:38;11.80;57.40
30288;DHT22;17103;48.316;11.558;2023-11-19T03:21:07;11.80;60.00
30288;DHT22;17103;48.316;11.558;2023-11-19T03:23:33;11.80;62.30
30288;DHT22;17103;48.316;11.558;2023-11-19T03:25:59;11.90;64.40
30288;DHT22;17103;48.316;11.558;2023-11-19T03:28:28;11.90;64.20
30288;DHT22;17103;48.316;11.558;2023-11-19T03:30:54;11.90;65.80
30288;DHT22;17103;48.316;11.558;2023-11-19T03:33:21;11.90;66.60
30288;DHT22;17103;48.316;11.558;2023-11-19T03:35:47;12.00;68.30
30288;DHT22;17103;48.316;11.558;2023-11-19T03:38:12;11.90;69.30
30288;DHT22;17103;48.316;11.558;2023-11-19T03:40:40;11.90;69.40
30288;DHT22;17103;48.316;11.558;2023-11-19T03:43:06;11.90;70.00
30288;DHT22;17103;48.316;11.558;2023-11-19T03:45:31;12.00;70.50
30288;DHT22;17103;48.316;11.558;2023-11-19T03:47:57;12.00;70.40
30288;DHT22;17103;48.316;11.558;2023-11-19T03:50:23;12.00;70.20
30288;DHT22;17103;48.316;11.558;2023-11-19T03:52:50;12.00;70.30
30288;DHT22;17103;48.316;11.558;2023-11-19T03:55:16;12.00;70.60
30288;DHT22;17103;48.316;11.558;2023-11-19T03:57:41;12.10;69.70
30288;DHT22;17103;48.316;11.558;2023-11-19T04:00:07;12.10;70.70
30288;DHT22;17103;48.316;11.558;2023-11-19T04:02:36;12.10;70.30
30288;DHT22;17103;48.316;11.558;2023-11-19T04:05:03;12.10;70.40
30288;DHT22;17103;48.316;11.558;2023-11-19T04:07:30;12.10;70.80
30288;DHT22;17103;48.316;11.558;2023-11-19T04:09:58;12.10;71.40
30288;DHT22;17103;48.316;11.558;2023-11-19T04:12:24;12.10;71.20
30288;DHT22;17103;48.316;11.558;2023-11-19T04:14:49;12.10;71.30
30288;DHT22;17103;48.316;11.558;2023-11-19T04:17:15;12.10;71.50
30288;DHT22;17103;48.316;11.558;2023-11-19T04:19:40;12.10;70.50
30288;DHT22;17103;48.316;11.558;2023-11-19T04:22:09;12.10;70.40
30288;DHT22;17103;48.316;11.558;2023-11-19T04:24:36;12.20;70.80
30288;DHT22;17103;48.316;11.558;2023-11-19T04:27:01;12.20;70.90
30288;DHT22;17103;48.316;11.558;2023-11-19T04:29:27;12.10;71.70
30288;DHT22;17103;48.316;11.558;2023-11-19T04:31:53;12.10;72.00
30288;DHT22;17103;48.316;11.558;2023-11-19T04:34:18;12.10;71.60
30288;DHT22;17103;48.316;11.558;2023-11-19T04:36:44;12.10;70.90
30288;DHT22;17103;48.316;11.558;2023-11-19T04:39:09;12.10;71.20
30288;DHT22;17103;48.316;11.558;2023-11-19T04:44:17;12.20;72.30
30288;DHT22;17103;48.316;11.558;2023-11-19T04:46:42;12.20;72.70
30288;DHT22;17103;48.316;11.558;2023-11-19T04:49:10;12.10;73.20
30288;DHT22;17103;48.316;11.558;2023-11-19T04:51:39;13.30;73.70
30288;DHT22;17103;48.316;11.558;2023-11-19T04:54:05;12.10;73.80
30288;DHT22;17103;48.316;11.558;2023-11-19T04:56:32;12.10;73.70
30288;DHT22;17103;48.316;11.558;2023-11-19T04:58:57;12.10;74.30
30288;DHT22;17103;48.316;11.558;2023-11-19T05:01:23;12.10;73.70
30288;DHT22;17103;48.316;11.558;2023-11-19T05:03:48;12.10;73.80
30288;DHT22;17103;48.316;11.558;2023-11-19T05:06:14;12.20;73.50
30288;DHT22;17103;48.316;11.558;2023-11-19T05:08:40;12.20;73.50
30288;DHT22;17103;48.316;11.558;2023-11-19T05:11:06;12.20;73.00
30288;DHT22;17103;48.316;11.558;2023-11-19T05:13:32;12.20;73.30
30288;DHT22;17103;48.316;11.558;2023-11-19T05:15:57;12.30;71.80
30288;DHT22;17103;48.316;11.558;2023-11-19T05:18:22;12.30;73.20
30288;DHT22;17103;48.316;11.558;2023-11-19T05:20:48;12.30;74.10
30288;DHT22;17103;48.316;11.558;2023-11-19T05:23:14;12.20;74.40
30288;DHT22;17103;48.316;11.558;2023-11-19T05:25:40;12.20;74.60
30288;DHT22;17103;48.316;11.558;2023-11-19T05:28:05;12.20;75.10
30288;DHT22;17103;48.316;11.558;2023-11-19T05:30:31;12.20;75.10
30288;DHT22;17103;48.316;11.558;2023-11-19T05:32:57;12.20;74.80
30288;DHT22;17103;48.316;11.558;2023-11-19T05:35:22;12.20;75.10
30288;DHT22;17103;48.316;11.558;2023-11-19T05:37:48;12.20;75.10
30288;DHT22;17103;48.316;11.558;2023-11-19T05:40:15;12.30;74.50
30288;DHT22;17103;48.316;11.558;2023-11-19T05:42:41;12.30;73.40
30288;DHT22;17103;48.316;11.558;2023-11-19T05:45:07;12.40;73.60
30288;DHT22;17103;48.316;11.558;2023-11-19T05:47:33;12.40;72.70
30288;DHT22;17103;48.316;11.558;2023-11-19T05:49:58;12.50;73.20
30288;DHT22;17103;48.316;11.558;2023-11-19T05:52:24;12.50;73.00
30288;DHT22;17103;48.316;11.558;2023-11-19T05:54:50;12.50;72.60
30288;DHT22;17103;48.316;11.558;2023-11-19T05:57:18;12.50;72.10
30288;DHT22;17103;48.316;11.558;2023-11-19T05:59:49;12.60;70.80
30288;DHT22;17103;48.316;11.558;2023-11-19T06:02:15;12.60;72.20
30288;DHT22;17103;48.316;11.558;2023-11-19T06:04:40;12.60;72.00
30288;DHT22;17103;48.316;11.558;2023-11-19T06:07:10;12.70;72.00
30288;DHT22;17103;48.316;11.558;2023-11-19T06:09:35;12.70;72.40
30288;DHT22;17103;48.316;11.558;2023-11-19T06:12:01;12.60;72.40
30288;DHT22;17103;48.316;11.558;2023-11-19T06:14:31;12.70;72.70
30288;DHT22;17103;48.316;11.558;2023-11-19T06:16:57;12.70;71.30
30288;DHT22;17103;48.316;11.558;2023-11-19T06:19:22;12.70;72.20
30288;DHT22;17103;48.316;11.558;2023-11-19T06:21:50;12.70;71.00
30288;DHT22;17103;48.316;11.558;2023-11-19T06:24:15;12.80;71.70
30288;DHT22;17103;48.316;11.558;2023-11-19T06:26:41;12.80;72.40
30288;DHT22;17103;48.316;11.558;2023-11-19T06:29:06;12.80;72.10
30288;DHT22;17103;48.316;11.558;2023-11-19T06:31:32;13.40;72.10
30288;DHT22;17103;48.316;11.558;2023-11-19T06:33:58;12.80;71.30
30288;DHT22;17103;48.316;11.558;2023-11-19T06:36:23;12.80;72.00
30288;DHT22;17103;48.316;11.558;2023-11-19T06:38:49;12.90;71.80
30288;DHT22;17103;48.316;11.558;2023-11-19T06:41:14;12.90;71.30
30288;DHT22;17103;48.316;11.558;2023-11-19T06:43:40;12.90;71.10
30288;DHT22;17103;48.316;11.558;2023-11-19T06:46:06;13.00;71.30
30288;DHT22;17103;48.316;11.558;2023-11-19T06:48:39;13.00;69.90
30288;DHT22;17103;48.316;11.558;2023-11-19T06:51:05;13.10;69.30
30288;DHT22;17103;48.316;11.558;2023-11-19T06:53:31;13.10;70.00
30288;DHT22;17103;48.316;11.558;2023-11-19T06:55:56;13.10;69.60
30288;DHT22;17103;48.316;11.558;2023-11-19T06:58:22;13.10;70.00
30288;DHT22;17103;48.316;11.558;2023-11-19T07:00:47;13.10;70.30
30288;DHT22;17103;48.316;11.558;2023-11-19T07:03:15;13.20;69.80
30288;DHT22;17103;48.316;11.558;2023-11-19T07:05:41;13.20;70.60
30288;DHT22;17103;48.316;11.558;2023-11-19T07:08:06;13.20;71.00
30288;DHT22;17103;48.316;11.558;2023-11-19T07:10:35;13.20;71.10
30288;DHT22;17103;48.316;11.558;2023-11-19T07:13:01;13.20;70.60
30288;DHT22;17103;48.316;11.558;2023-11-19T07:15:27;13.20;70.80
30288;DHT22;17103;48.316;11.558;2023-11-19T07:17:52;13.20;70.30
30288;DHT22;17103;48.316;11.558;2023-11-19T07:20:19;13.20;70.40
30288;DHT22;17103;48.316;11.558;2023-11-19T07:22:46;13.20;71.50
30288;DHT22;17103;48.316;11.558;2023-11-19T07:25:15;13.30;71.70
30288;DHT22;17103;48.316;11.558;2023-11-19T07:27:40;13.30;71.80
30288;DHT22;17103;48.316;11.558;2023-11-19T07:30:06;13.30;72.00
30288;DHT22;17103;48.316;11.558;2023-11-19T07:32:34;13.30;71.30
30288;DHT22;17103;48.316;11.558;2023-11-19T07:35:00;13.40;71.60
30288;DHT22;17103;48.316;11.558;2023-11-19T07:37:26;13.40;71.70
30288;DHT22;17103;48.316;11.558;2023-11-19T07:39:51;13.40;71.40
30288;DHT22;17103;48.316;11.558;2023-11-19T07:42:17;13.40;71.40
30288;DHT22;17103;48.316;11.558;2023-11-19T07:44:45;13.50;71.10
30288;DHT22;17103;48.316;11.558;2023-11-19T07:47:11;13.50;71.40
30288;DHT22;17103;48.316;11.558;2023-11-19T07:49:38;13.50;71.50
30288;DHT22;17103;48.316;11.558;2023-11-19T07:52:04;13.50;71.00
30288;DHT22;17103;48.316;11.558;2023-11-19T07:54:29;13.60;71.10
30288;DHT22;17103;48.316;11.558;2023-11-19T07:56:55;13.60;69.70
30288;DHT22;17103;48.316;11.558;2023-11-19T07:59:21;13.70;70.10
30288;DHT22;17103;48.316;11.558;2023-11-19T08:01:46;13.80;69.40
30288;DHT22;17103;48.316;11.558;2023-11-19T08:04:12;13.80;69.50
30288;DHT22;17103;48.316;11.558;2023-11-19T08:06:38;13.80;69.30
30288;DHT22;17103;48.316;11.558;2023-11-19T08:09:03;13.80;69.40
30288;DHT22;17103;48.316;11.558;2023-11-19T08:11:29;13.80;70.10
30288;DHT22;17103;48.316;11.558;2023-11-19T08:13:55;13.80;70.20
30288;DHT22;17103;48.316;11.558;2023-11-19T08:16:20;13.80;70.30
30288;DHT22;17103;48.316;11.558;2023-11-19T08:18:46;13.90;70.00
30288;DHT22;17103;48.316;11.558;2023-11-19T08:21:11;13.90;70.30
30288;DHT22;17103;48.316;11.558;2023-11-19T08:23:37;13.90;69.70
30288;DHT22;17103;48.316;11.558;2023-11-19T08:26:03;14.00;69.30
30288;DHT22;17103;48.316;11.558;2023-11-19T08:28:31;14.00;69.50
30288;DHT22;17103;48.316;11.558;2023-11-19T08:30:56;14.10;68.70
30288;DHT22;17103;48.316;11.558;2023-11-19T08:33:22;14.10;68.50
30288;DHT22;17103;48.316;11.558;2023-11-19T08:35:48;14.20;68.50
30288;DHT22;17103;48.316;11.558;2023-11-19T08:38:13;14.20;68.60
30288;DHT22;17103;48.316;11.558;2023-11-19T08:40:39;14.20;68.60
30288;DHT22;17103;48.316;11.558;2023-11-19T08:43:04;14.20;68.50
30288;DHT22;17103;48.316;11.558;2023-11-19T08:45:31;14.20;68.50
30288;DHT22;17103;48.316;11.558;2023-11-19T08:47:57;14.30;68.60
30288;DHT22;17103;48.316;11.558;2023-11-19T08:50:23;14.30;68.20
30288;DHT22;17103;48.316;11.558;2023-11-19T08:52:49;14.30;68.00
30288;DHT22;17103;48.316;11.558;2023-11-19T08:55:15;14.40;68.30
30288;DHT22;17103;48.316;11.558;2023-11-19T08:57:40;14.40;67.80
30288;DHT22;17103;48.316;11.558;2023-11-19T09:00:06;14.40;67.20
30288;DHT22;17103;48.316;11.558;2023-11-19T09:02:34;13.70;67.20
30288;DHT22;17103;48.316;11.558;2023-11-19T09:04:59;14.40;68.50
30288;DHT22;17103;48.316;11.558;2023-11-19T09:07:25;14.40;68.50
30288;DHT22;17103;48.316;11.558;2023-11-19T09:09:51;14.40;68.40
30288;DHT22;17103;48.316;11.558;2023-11-19T09:12:16;14.50;68.40
30288;DHT22;17103;48.316;11.558;2023-11-19T09:14:42;14.50;68.30
30288;DHT22;17103;48.316;11.558;2023-11-19T09:17:07;14.50;67.70
30288;DHT22;17103;48.316;11.558;2023-11-19T09:19:34;14.60;68.30
30288;DHT22;17103;48.316;11.558;2023-11-19T09:22:01;14.60;68.80
30288;DHT22;17103;48.316;11.558;2023-11-19T09:24:26;14.70;69.10
30288;DHT22;17103;48.316;11.558;2023-11-19T09:26:52;14.70;69.00
30288;DHT22;17103;48.316;11.558;2023-11-19T09:29:20;13.70;67.50
30288;DHT22;17103;48.316;11.558;2023-11-19T09:31:46;14.80;68.40
30288;DHT22;17103;48.316;11.558;2023-11-19T09:34:12;14.90;67.60
30288;DHT22;17103;48.316;11.558;2023-11-19T09:36:38;14.80;67.90
30288;DHT22;17103;48.316;11.558;2023-11-19T09:39:04;14.90;67.90
30288;DHT22;17103;48.316;11.558;2023-11-19T09:41:30;14.90;68.10
30288;DHT22;17103;48.316;11.558;2023-11-19T09:43:56;14.90;67.70
30288;DHT22;17103;48.316;11.558;2023-11-19T09:46:22;15.00;68.30
30288;DHT22;17103;48.316;11.558;2023-11-19T09:48:49;14.90;68.30
30288;DHT22;17103;48.316;11.558;2023-11-19T09:51:20;15.00;68.20
30288;DHT22;17103;48.316;11.558;2023-11-19T09:53:45;15.00;68.20
30288;DHT22;17103;48.316;11.558;2023-11-19T09:56:11;15.00;68.80
30288;DHT22;17103;48.316;11.558;2023-11-19T09:58:39;15.10;68.30
30288;DHT22;17103;48.316;11.558;2023-11-19T10:01:05;15.10;69.00
30288;DHT22;17103;48.316;11.558;2023-11-19T10:03:33;15.10;69.30
30288;DHT22;17103;48.316;11.558;2023-11-19T10:06:00;15.10;68.80
30288;DHT22;17103;48.316;11.558;2023-11-19T10:08:26;15.10;69.00
30288;DHT22;17103;48.316;11.558;2023-11-19T10:10:52;15.10;68.90
30288;DHT22;17103;48.316;11.558;2023-11-19T10:13:17;15.10;69.10
30288;DHT22;17103;48.316;11.558;2023-11-19T10:15:43;15.10;68.90
30288;DHT22;17103;48.316;11.558;2023-11-19T10:18:09;15.20;68.40
30288;DHT22;17103;48.316;11.558;2023-11-19T10:20:35;15.30;68.40
30288;DHT22;17103;48.316;11.558;2023-11-19T10:23:02;15.30;68.60
30288;DHT22;17103;48.316;11.558;2023-11-19T10:25:28;15.40;68.80
30288;DHT22;17103;48.316;11.558;2023-11-19T10:27:54;15.50;68.30
30288;DHT22;17103;48.316;11.558;2023-11-19T10:30:21;15.60;68.30
30288;DHT22;17103;48.316;11.558;2023-11-19T10:33:09;15.60;68.20
30288;DHT22;17103;48.316;11.558;2023-11-19T10:35:33;15.70;67.60
30288;DHT22;17103;48.316;11.558;2023-11-19T10:37:59;15.70;66.80
30288;DHT22;17103;48.316;11.558;2023-11-19T10:40:37;15.80;66.60
30288;DHT22;17103;48.316;11.558;2023-11-19T10:43:03;15.80;66.70
30288;DHT22;17103;48.316;11.558;2023-11-19T10:45:28;15.90;66.70
30288;DHT22;17103;48.316;11.558;2023-11-19T10:47:54;15.90;66.70
30288;DHT22;17103;48.316;11.558;2023-11-19T10:50:20;16.00;66.00
30288;DHT22;17103;48.316;11.558;2023-11-19T10:52:46;16.00;66.10
30288;DHT22;17103;48.316;11.558;2023-11-19T10:55:13;16.00;65.00
30288;DHT22;17103;48.316;11.558;2023-11-19T10:57:41;16.10;65.20
30288;DHT22;17103;48.316;11.558;2023-11-19T11:00:09;16.10;64.40
30288;DHT22;17103;48.316;11.558;2023-11-19T11:02:39;16.00;64.60
30288;DHT22;17103;48.316;11.558;2023-11-19T11:05:06;16.10;65.10
30288;DHT22;17103;48.316;11.558;2023-11-19T11:07:33;16.10;64.20
30288;DHT22;17103;48.316;11.558;2023-11-19T11:10:00;16.10;63.70
30288;DHT22;17103;48.316;11.558;2023-11-19T11:12:26;16.10;64.30
30288;DHT22;17103;48.316;11.558;2023-11-19T11:14:58;16.20;64.40
30288;DHT22;17103;48.316;11.558;2023-11-19T11:17:24;16.20;64.30
30288;DHT22;17103;48.316;11.558;2023-11-19T11:19:49;16.10;64.30
30288;DHT22;17103;48.316;11.558;2023-11-19T11:22:15;16.20;64.30
30288;DHT22;17103;48.316;11.558;2023-11-19T11:27:16;16.20;64.20
30288;DHT22;17103;48.316;11.558;2023-11-19T11:29:54;16.20;63.20
30288;DHT22;17103;48.316;11.558;2023-11-19T11:38:16;16.40;63.40
30288;DHT22;17103;48.316;11.558;2023-11-19T11:40:22;16.40;62.80
30288;DHT22;17103;48.316;11.558;2023-11-19T11:42:49;16.50;62.60
30288;DHT22;17103;48.316;11.558;2023-11-19T11:45:17;16.50;62.70
30288;DHT22;17103;48.316;11.558;2023-11-19T11:50:09;16.50;61.90
30288;DHT22;17103;48.316;11.558;2023-11-19T11:55:23;16.50;61.60
30288;DHT22;17103;48.316;11.558;2023-11-19T11:57:51;16.60;62.30
30288;DHT22;17103;48.316;11.558;2023-11-19T12:03:01;16.60;61.50
30288;DHT22;17103;48.316;11.558;2023-11-19T12:05:27;16.70;61.30
30288;DHT22;17103;48.316;11.558;2023-11-19T12:07:56;16.70;61.20
30288;DHT22;17103;48.316;11.558;2023-11-19T12:10:29;16.80;59.80
30288;DHT22;17103;48.316;11.558;2023-11-19T12:13:04;16.80;60.40
30288;DHT22;17103;48.316;11.558;2023-11-19T12:15:31;16.80;61.00
30288;DHT22;17103;48.316;11.558;2023-11-19T12:17:57;16.90;60.00
30288;DHT22;17103;48.316;11.558;2023-11-19T12:20:23;16.90;60.10
30288;DHT22;17103;48.316;11.558;2023-11-19T12:22:49;16.90;59.80
30288;DHT22;17103;48.316;11.558;2023-11-19T12:25:16;16.90;59.90
30288;DHT22;17103;48.316;11.558;2023-11-19T12:27:43;16.90;59.70
30288;DHT22;17103;48.316;11.558;2023-11-19T12:30:09;16.80;59.40
30288;DHT22;17103;48.316;11.558;2023-11-19T12:32:41;16.90;59.90
30288;DHT22;17103;48.316;11.558;2023-11-19T12:35:07;16.90;59.90
30288;DHT22;17103;48.316;11.558;2023-11-19T12:37:40;16.90;60.70
30288;DHT22;17103;48.316;11.558;2023-11-19T12:40:18;17.00;60.60
30288;DHT22;17103;48.316;11.558;2023-11-19T12:42:45;17.00;60.50
30288;DHT22;17103;48.316;11.558;2023-11-19T12:45:11;17.10;59.60
30288;DHT22;17103;48.316;11.558;2023-11-19T12:47:40;17.10;58.90
30288;DHT22;17103;48.316;11.558;2023-11-19T12:50:08;17.20;58.90
30288;DHT22;17103;48.316;11.558;2023-11-19T12:52:35;17.20;58.10
30288;DHT22;17103;48.316;11.558;2023-11-19T12:55:01;17.20;57.60
30288;DHT22;17103;48.316;11.558;2023-11-19T12:57:38;17.20;57.40
30288;DHT22;17103;48.316;11.558;2023-11-19T13:00:04;17.20;57.60
30288;DHT22;17103;48.316;11.558;2023-11-19T13:02:50;17.10;57.30
30288;DHT22;17103;48.316;11.558;2023-11-19T13:05:32;17.10;57.30
30288;DHT22;17103;48.316;11.558;2023-11-19T13:08:02;17.10;57.30
30288;DHT22;17103;48.316;11.558;2023-11-19T13:10:29;17.00;57.30
30288;DHT22;17103;48.316;11.558;2023-11-19T13:13:02;17.00;57.40
30288;DHT22;17103;48.316;11.558;2023-11-19T13:15:27;16.90;57.60
30288;DHT22;17103;48.316;11.558;2023-11-19T13:17:53;16.90;58.10
30288;DHT22;17103;48.316;11.558;2023-11-19T13:20:20;17.00;58.00
30288;DHT22;17103;48.316;11.558;2023-11-19T13:23:03;17.00;58.20
30288;DHT22;17103;48.316;11.558;2023-11-19T13:25:29;17.00;58.30
30288;DHT22;17103;48.316;11.558;2023-11-19T13:27:55;17.00;58.30
30288;DHT22;17103;48.316;11.558;2023-11-19T13:30:21;17.10;57.60
30288;DHT22;17103;48.316;11.558;2023-11-19T13:32:52;17.10;57.20
30288;DHT22;17103;48.316;11.558;2023-11-19T13:35:17;17.10;57.40
30288;DHT22;17103;48.316;11.558;2023-11-19T13:37:44;17.10;57.40
30288;DHT22;17103;48.316;11.558;2023-11-19T13:40:11;17.10;57.20
30288;DHT22;17103;48.316;11.558;2023-11-19T13:42:38;17.20;57.30
30288;DHT22;17103;48.316;11.558;2023-11-19T13:45:09;17.20;57.10
30288;DHT22;17103;48.316;11.558;2023-11-19T13:47:44;17.30;57.40
30288;DHT22;17103;48.316;11.558;2023-11-19T13:50:10;17.40;58.30
30288;DHT22;17103;48.316;11.558;2023-11-19T13:52:37;17.50;57.40
30288;DHT22;17103;48.316;11.558;2023-11-19T13:55:06;17.60;57.80
30288;DHT22;17103;48.316;11.558;2023-11-19T13:57:32;17.80;58.20
30288;DHT22;17103;48.316;11.558;2023-11-19T13:59:58;17.90;56.80
30288;DHT22;17103;48.316;11.558;2023-11-19T14:02:25;18.00;56.40
30288;DHT22;17103;48.316;11.558;2023-11-19T14:04:52;18.10;55.80
30288;DHT22;17103;48.316;11.558;2023-11-19T14:07:17;18.10;54.20
30288;DHT22;17103;48.316;11.558;2023-11-19T14:09:43;18.10;55.00
30288;DHT22;17103;48.316;11.558;2023-11-19T14:12:09;18.20;54.40
30288;DHT22;17103;48.316;11.558;2023-11-19T14:14:35;18.20;54.00
30288;DHT22;17103;48.316;11.558;2023-11-19T14:17:03;18.20;53.50
30288;DHT22;17103;48.316;11.558;2023-11-19T14:19:29;18.20;53.30
30288;DHT22;17103;48.316;11.558;2023-11-19T14:21:54;18.30;53.40
30288;DHT22;17103;48.316;11.558;2023-11-19T14:24:20;18.30;54.00
30288;DHT22;17103;48.316;11.558;2023-11-19T14:26:46;18.30;53.50
30288;DHT22;17103;48.316;11.558;2023-11-19T14:29:12;18.40;53.00
30288;DHT22;17103;48.316;11.558;2023-11-19T14:31:38;18.40;52.40
30288;DHT22;17103;48.316;11.558;2023-11-19T14:34:05;18.30;52.30
30288;DHT22;17103;48.316;11.558;2023-11-19T14:36:30;18.30;53.10
30288;DHT22;17103;48.316;11.558;2023-11-19T14:38:56;18.30;53.10
30288;DHT22;17103;48.316;11.558;2023-11-19T14:41:25;18.30;53.30
30288;DHT22;17103;48.316;11.558;2023-11-19T14:43:50;18.30;53.80
30288;DHT22;17103;48.316;11.558;2023-11-19T14:46:18;18.30;53.40
30288;DHT22;17103;48.316;11.558;2023-11-19T14:48:43;18.30;53.40
30288;DHT22;17103;48.316;11.558;2023-11-19T14:51:09;18.30;53.00
30288;DHT22;17103;48.316;11.558;2023-11-19T14:53:35;18.30;53.30
30288;DHT22;17103;48.316;11.558;2023-11-19T14:56:00;18.30;52.90
30288;DHT22;17103;48.316;11.558;2023-11-19T14:58:26;18.20;52.80
30288;DHT22;17103;48.316;11.558;2023-11-19T15:00:52;18.20;52.60
30288;DHT22;17103;48.316;11.558;2023-11-19T15:03:18;18.10;52.30
30288;DHT22;17103;48.316;11.558;2023-11-19T15:05:45;18.10;52.80
30288;DHT22;17103;48.316;11.558;2023-11-19T15:08:11;18.00;52.30
30288;DHT22;17103;48.316;11.558;2023-11-19T15:10:36;18.00;52.30
30288;DHT22;17103;48.316;11.558;2023-11-19T15:13:03;17.90;52.70
30288;DHT22;17103;48.316;11.558;2023-11-19T15:15:29;17.80;53.00
30288;DHT22;17103;48.316;11.558;2023-11-19T15:17:55;17.80;52.50
30288;DHT22;17103;48.316;11.558;2023-11-19T15:20:20;17.70;52.50
30288;DHT22;17103;48.316;11.558;2023-11-19T15:22:46;17.70;52.40
30288;DHT22;17103;48.316;11.558;2023-11-19T15:25:12;17.60;52.90
30288;DHT22;17103;48.316;11.558;2023-11-19T15:27:38;17.50;53.10
30288;DHT22;17103;48.316;11.558;2023-11-19T15:30:04;17.50;53.40